createdAt,value
2018-01-13T00:02:00.049Z,37.90
2018-01-13T00:04:26.781Z,33.57
2018-01-13T00:06:53.497Z,36.87
2018-01-13T00:09:20.282Z,37.43
2018-01-13T00:11:47.036Z,34.37
2018-01-13T00:14:13.787Z,35.20
2018-01-13T00:16:40.514Z,36.23
2018-01-13T00:19:07.235Z,34.70
2018-01-13T00:21:33.952Z,31.80
2018-01-13T00:24:00.687Z,34.80
2018-01-13T00:26:27.426Z,34.60
2018-01-13T00:28:54.168Z,33.97
2018-01-13T00:31:20.899Z,30.40
2018-01-13T00:33:47.613Z,36.50
2018-01-13T00:36:14.338Z,34.10
2018-01-13T00:38:41.049Z,29.80
2018-01-13T00:41:07.776Z,31.63
2018-01-13T00:43:34.525Z,35.43
2018-01-13T00:46:01.233Z,33.20
2018-01-13T00:48:27.949Z,34.20
2018-01-13T00:50:54.693Z,29.57
2018-01-13T00:53:21.421Z,32.50
2018-01-13T00:55:48.137Z,31.57
2018-01-13T00:58:14.869Z,34.27
2018-01-13T01:00:41.596Z,35.70
2018-01-13T01:03:08.318Z,34.33
2018-01-13T01:05:35.053Z,31.23
2018-01-13T01:08:01.781Z,31.40
2018-01-13T01:10:28.512Z,35.57
2018-01-13T01:12:55.245Z,35.23
2018-01-13T01:15:21.962Z,35.97
2018-01-13T01:17:48.700Z,32.07
2018-01-13T01:20:15.436Z,35.97
2018-01-13T01:22:42.157Z,35.87
2018-01-13T01:25:08.879Z,37.40
2018-01-13T01:27:35.589Z,41.47
2018-01-13T01:30:02.301Z,42.87
2018-01-13T01:32:29.048Z,30.77
2018-01-13T01:34:55.765Z,38.97
2018-01-13T01:37:22.480Z,37.00
2018-01-13T01:39:49.225Z,37.07
2018-01-13T01:42:15.952Z,32.87
2018-01-13T01:44:42.672Z,33.87
2018-01-13T01:47:09.406Z,37.57
2018-01-13T01:49:36.134Z,38.57
2018-01-13T01:52:02.841Z,34.43
2018-01-13T01:54:29.598Z,29.30
2018-01-13T01:56:56.346Z,30.10
2018-01-13T01:59:23.087Z,35.57
2018-01-13T02:01:49.840Z,31.93
2018-01-13T02:04:16.582Z,32.57
2018-01-13T02:06:43.303Z,31.73
2018-01-13T02:09:10.038Z,30.97
2018-01-13T02:11:36.760Z,30.40
2018-01-13T02:14:03.470Z,28.80
2018-01-13T02:16:30.178Z,31.40
2018-01-13T02:18:56.908Z,29.00
2018-01-13T02:21:23.639Z,31.50
2018-01-13T02:23:50.359Z,25.70
2018-01-13T02:26:17.095Z,30.33
2018-01-13T02:28:43.808Z,26.43
2018-01-13T02:31:10.530Z,28.67
2018-01-13T02:33:37.273Z,24.43
2018-01-13T02:36:03.988Z,27.20
2018-01-13T02:38:30.704Z,24.07
2018-01-13T02:40:57.448Z,25.57
2018-01-13T02:43:24.169Z,25.63
2018-01-13T02:45:50.917Z,25.20
2018-01-13T02:48:17.652Z,26.07
2018-01-13T02:50:44.377Z,24.60
2018-01-13T02:53:11.101Z,24.83
2018-01-13T02:55:37.844Z,23.27
2018-01-13T02:58:04.581Z,25.33
2018-01-13T03:00:31.292Z,23.80
2018-01-13T03:02:58.022Z,22.40
2018-01-13T03:05:24.772Z,26.20
2018-01-13T03:07:51.489Z,21.90
2018-01-13T03:10:18.229Z,22.10
2018-01-13T03:12:44.931Z,23.23
2018-01-13T03:15:11.646Z,21.30
2018-01-13T03:17:38.410Z,20.63
2018-01-13T03:20:05.146Z,21.97
2018-01-13T03:22:31.858Z,19.57
2018-01-13T03:24:58.577Z,18.93
2018-01-13T03:27:25.289Z,20.83
2018-01-13T03:29:51.990Z,19.43
2018-01-13T03:32:18.719Z,15.70
2018-01-13T03:34:45.465Z,16.80
2018-01-13T03:37:12.178Z,19.10
2018-01-13T03:39:38.924Z,20.47
2018-01-13T03:42:05.649Z,17.77
2018-01-13T03:44:32.352Z,20.93
2018-01-13T03:46:59.098Z,19.10
2018-01-13T03:49:25.808Z,18.00
2018-01-13T03:51:52.521Z,16.23
2018-01-13T03:54:19.285Z,17.20
2018-01-13T03:56:45.994Z,18.63
2018-01-13T03:59:12.707Z,20.23
2018-01-13T04:01:39.450Z,15.90
2018-01-13T04:04:06.160Z,18.77
2018-01-13T04:06:32.874Z,18.97
2018-01-13T04:08:59.626Z,19.93
2018-01-13T04:11:26.337Z,17.63
2018-01-13T04:13:53.041Z,17.63
2018-01-13T04:16:19.793Z,21.10
2018-01-13T04:18:46.498Z,20.67
2018-01-13T04:21:13.219Z,21.77
2018-01-13T04:23:39.979Z,21.23
2018-01-13T04:26:06.685Z,20.27
2018-01-13T04:28:33.397Z,18.03
2018-01-13T04:31:00.141Z,20.33
2018-01-13T04:33:26.859Z,18.93
2018-01-13T04:35:53.577Z,19.07
2018-01-13T04:38:20.287Z,22.57
2018-01-13T04:40:47.011Z,20.73
2018-01-13T04:43:13.732Z,17.63
2018-01-13T04:45:40.457Z,18.90
2018-01-13T04:48:07.185Z,19.70
2018-01-13T04:50:34.012Z,17.63
2018-01-13T04:53:01.698Z,17.47
2018-01-13T04:55:28.421Z,19.93
2018-01-13T04:57:55.155Z,20.27
2018-01-13T05:00:21.885Z,18.50
2018-01-13T05:02:48.596Z,18.03
2018-01-13T05:05:15.317Z,17.93
2018-01-13T05:07:42.053Z,15.40
2018-01-13T05:10:08.765Z,16.23
2018-01-13T05:12:35.468Z,19.10
2018-01-13T05:15:02.181Z,17.87
2018-01-13T05:17:28.933Z,16.43
2018-01-13T05:19:55.672Z,17.70
2018-01-13T05:22:22.422Z,20.17
2018-01-13T05:24:49.138Z,18.27
2018-01-13T05:27:15.849Z,19.30
2018-01-13T05:29:42.581Z,22.20
2018-01-13T05:32:09.293Z,17.87
2018-01-13T05:34:36.008Z,20.17
2018-01-13T05:37:02.747Z,18.33
2018-01-13T05:39:29.458Z,20.77
2018-01-13T05:41:56.169Z,21.90
2018-01-13T05:44:22.882Z,16.17
2018-01-13T05:46:49.613Z,20.80
2018-01-13T05:49:16.369Z,17.10
2018-01-13T05:51:43.099Z,16.97
2018-01-13T05:54:09.838Z,19.00
2018-01-13T05:56:36.548Z,17.73
2018-01-13T05:59:03.279Z,18.20
2018-01-13T06:01:30.015Z,18.90
2018-01-13T06:03:56.727Z,17.63
2018-01-13T06:06:23.459Z,18.63
2018-01-13T06:08:50.167Z,20.63
2018-01-13T06:11:16.902Z,17.87
2018-01-13T06:13:43.642Z,18.07
2018-01-13T06:16:10.362Z,16.60
2018-01-13T06:18:37.071Z,16.67
2018-01-13T06:21:03.815Z,17.67
2018-01-13T06:23:30.560Z,18.67
2018-01-13T06:25:57.266Z,19.60
2018-01-13T06:28:23.995Z,15.70
2018-01-13T06:30:50.711Z,17.60
2018-01-13T06:33:17.450Z,15.27
2018-01-13T06:35:44.173Z,17.70
2018-01-13T06:38:10.886Z,18.00
2018-01-13T06:40:37.623Z,18.83
2018-01-13T06:43:04.333Z,17.20
2018-01-13T06:45:31.067Z,19.13
2018-01-13T06:47:57.815Z,19.80
2018-01-13T06:50:24.533Z,20.03
2018-01-13T06:52:51.252Z,17.43
2018-01-13T06:55:17.995Z,20.70
2018-01-13T06:57:44.717Z,22.37
2018-01-13T07:00:11.436Z,18.30
2018-01-13T07:02:38.172Z,18.53
2018-01-13T07:05:04.999Z,16.90
2018-01-13T07:07:31.711Z,17.37
2018-01-13T07:09:58.463Z,19.80
2018-01-13T07:12:25.218Z,16.57
2018-01-13T07:14:51.949Z,18.27
2018-01-13T07:17:18.669Z,19.70
2018-01-13T07:19:45.409Z,21.20
2018-01-13T07:22:12.121Z,18.30
2018-01-13T07:24:38.845Z,23.30
2018-01-13T07:27:05.583Z,19.03
2018-01-13T07:29:32.296Z,17.93
2018-01-13T07:31:59.022Z,18.77
2018-01-13T07:34:25.756Z,18.23
2018-01-13T07:36:52.489Z,19.40
2018-01-13T07:39:19.269Z,17.17
2018-01-13T07:41:46.879Z,18.03
2018-01-13T07:44:16.958Z,20.17
2018-01-13T07:46:43.722Z,15.17
2018-01-13T07:49:10.472Z,20.70
2018-01-13T07:51:37.189Z,19.03
2018-01-13T07:54:03.914Z,21.63
2018-01-13T07:56:30.640Z,19.20
2018-01-13T07:58:57.352Z,17.57
2018-01-13T08:01:24.091Z,20.87
2018-01-13T08:03:50.837Z,19.00
2018-01-13T08:06:17.569Z,19.70
2018-01-13T08:08:44.329Z,21.50
2018-01-13T08:11:11.072Z,20.83
2018-01-13T08:13:37.813Z,23.37
2018-01-13T08:16:04.548Z,22.60
2018-01-13T08:18:31.333Z,21.27
2018-01-13T08:20:58.077Z,22.90
2018-01-13T08:23:24.789Z,24.00
2018-01-13T08:25:51.854Z,19.00
2018-01-13T08:28:18.570Z,21.57
2018-01-13T08:30:45.290Z,21.20
2018-01-13T08:33:16.351Z,23.27
2018-01-13T08:35:43.080Z,19.00
2018-01-13T08:38:09.797Z,22.53
2018-01-13T08:40:36.541Z,19.50
2018-01-13T08:43:03.261Z,24.87
2018-01-13T08:45:30.005Z,27.30
2018-01-13T08:47:56.745Z,23.90
2018-01-13T08:50:23.459Z,22.87
2018-01-13T08:52:50.185Z,22.80
2018-01-13T08:55:16.909Z,26.17
2018-01-13T08:57:43.657Z,25.40
2018-01-13T09:00:10.404Z,23.23
2018-01-13T09:02:37.198Z,25.43
2018-01-13T09:05:03.947Z,24.90
2018-01-13T09:07:30.662Z,20.90
2018-01-13T09:09:57.396Z,21.57
2018-01-13T09:12:24.123Z,25.10
2018-01-13T09:14:50.843Z,25.57
2018-01-13T09:17:17.578Z,27.73
2018-01-13T09:19:44.294Z,24.53
2018-01-13T09:22:11.003Z,25.67
2018-01-13T09:24:37.768Z,24.03
2018-01-13T09:27:04.509Z,26.07
2018-01-13T09:29:31.229Z,23.10
2018-01-13T09:31:57.982Z,26.60
2018-01-13T09:34:24.716Z,18.93
2018-01-13T09:36:51.423Z,26.80
2018-01-13T09:39:18.146Z,22.93
2018-01-13T09:41:44.915Z,20.47
2018-01-13T09:44:11.713Z,25.80
2018-01-13T09:46:38.442Z,24.23
2018-01-13T09:49:05.172Z,22.00
2018-01-13T09:51:31.896Z,22.40
2018-01-13T09:53:58.656Z,21.57
2018-01-13T09:56:25.367Z,20.90
2018-01-13T09:58:52.084Z,22.23
2018-01-13T10:01:18.834Z,22.83
2018-01-13T10:03:45.571Z,24.43
2018-01-13T10:06:12.275Z,24.90
2018-01-13T10:08:39.002Z,23.30
2018-01-13T10:11:05.865Z,20.23
2018-01-13T10:13:32.598Z,26.83
2018-01-13T10:15:59.337Z,22.23
2018-01-13T10:18:26.096Z,22.77
2018-01-13T10:20:52.855Z,25.33
2018-01-13T10:23:19.671Z,24.33
2018-01-13T10:25:46.387Z,27.90
2018-01-13T10:28:13.137Z,19.27
2018-01-13T10:30:39.909Z,24.30
2018-01-13T10:33:06.652Z,22.27
2018-01-13T10:35:33.366Z,22.70
2018-01-13T10:38:00.111Z,27.07
2018-01-13T10:40:26.827Z,22.73
2018-01-13T10:42:53.544Z,22.73
2018-01-13T10:45:20.300Z,22.07
2018-01-13T10:47:47.015Z,21.60
2018-01-13T10:50:13.764Z,21.40
2018-01-13T10:52:40.506Z,26.73
2018-01-13T10:55:07.269Z,24.63
2018-01-13T10:57:33.981Z,25.43
2018-01-13T11:00:00.741Z,25.40
2018-01-13T11:02:27.483Z,28.30
2018-01-13T11:04:54.209Z,27.50
2018-01-13T11:07:20.938Z,25.53
2018-01-13T11:09:47.663Z,25.50
2018-01-13T11:12:14.437Z,26.83
2018-01-13T11:14:41.215Z,32.47
2018-01-13T11:17:07.939Z,30.27
2018-01-13T11:19:34.641Z,27.90
2018-01-13T11:22:01.406Z,20.53
2018-01-13T11:24:28.135Z,21.77
2018-01-13T11:26:54.889Z,20.70
2018-01-13T11:29:21.651Z,20.37
2018-01-13T11:31:48.382Z,21.03
2018-01-13T11:34:15.100Z,21.03
2018-01-13T11:36:41.846Z,22.50
2018-01-13T11:39:09.784Z,20.37
2018-01-13T11:41:36.539Z,21.47
2018-01-13T11:44:03.252Z,20.40
2018-01-13T11:46:29.994Z,21.27
2018-01-13T11:48:56.718Z,18.80
2018-01-13T11:51:23.452Z,20.93
2018-01-13T11:53:50.189Z,19.03
2018-01-13T11:56:16.914Z,22.87
2018-01-13T11:58:43.654Z,20.53
2018-01-13T12:01:10.397Z,24.10
2018-01-13T12:03:37.100Z,16.97
2018-01-13T12:06:03.836Z,20.83
2018-01-13T12:08:30.535Z,20.03
2018-01-13T12:10:57.325Z,20.43
2018-01-13T12:13:24.037Z,18.90
2018-01-13T12:15:50.783Z,20.93
2018-01-13T12:18:17.511Z,18.73
2018-01-13T12:20:44.257Z,19.70
2018-01-13T12:23:11.001Z,20.77
2018-01-13T12:25:37.818Z,22.60
2018-01-13T12:28:04.587Z,23.40
2018-01-13T12:30:31.310Z,20.30
2018-01-13T12:32:58.030Z,20.27
2018-01-13T12:35:24.788Z,21.53
2018-01-13T12:37:51.510Z,21.40
2018-01-13T12:40:18.261Z,21.63
2018-01-13T12:42:45.022Z,21.87
2018-01-13T12:45:11.759Z,21.57
2018-01-13T12:47:38.601Z,22.60
2018-01-13T12:50:05.361Z,23.00
2018-01-13T12:52:32.115Z,24.47
2018-01-13T12:54:58.860Z,24.90
2018-01-13T12:57:25.597Z,22.90
2018-01-13T12:59:52.320Z,21.50
2018-01-13T13:02:19.032Z,24.53
2018-01-13T13:04:45.793Z,23.47
2018-01-13T13:07:12.512Z,22.43
2018-01-13T13:09:39.238Z,24.03
2018-01-13T13:12:05.976Z,21.37
2018-01-13T13:14:32.679Z,24.53
2018-01-13T13:16:59.394Z,21.33
2018-01-13T13:19:26.124Z,25.50
2018-01-13T13:21:52.929Z,24.17
2018-01-13T13:24:19.653Z,19.20
2018-01-13T13:26:46.430Z,21.67
2018-01-13T13:29:13.193Z,21.80
2018-01-13T13:31:40.016Z,22.10
2018-01-13T13:34:06.787Z,20.83
2018-01-13T13:36:33.514Z,22.13
2018-01-13T13:39:00.300Z,21.20
2018-01-13T13:41:27.034Z,21.37
2018-01-13T13:43:53.871Z,26.37
2018-01-13T13:46:20.598Z,22.47
2018-01-13T13:48:47.386Z,20.70
2018-01-13T13:51:14.141Z,23.60
2018-01-13T13:53:40.874Z,23.97
2018-01-13T13:56:07.598Z,25.87
2018-01-13T13:58:34.362Z,28.63
2018-01-13T14:01:22.124Z,24.53
2018-01-13T14:03:27.949Z,22.50
2018-01-13T14:05:54.677Z,22.10
2018-01-13T14:08:21.422Z,24.03
2018-01-13T14:10:48.193Z,26.43
2018-01-13T14:13:14.933Z,25.23
2018-01-13T14:15:41.750Z,27.50
2018-01-13T14:18:08.491Z,27.00
2018-01-13T14:20:35.243Z,25.87
2018-01-13T14:23:01.978Z,27.00
2018-01-13T14:25:28.756Z,22.17
2018-01-13T14:27:55.496Z,24.70
2018-01-13T14:30:22.226Z,26.90
2018-01-13T14:32:48.961Z,25.67
2018-01-13T14:35:15.688Z,24.33
2018-01-13T14:37:42.427Z,27.13
2018-01-13T14:40:09.155Z,25.13
2018-01-13T14:42:35.867Z,27.23
2018-01-13T14:45:02.580Z,25.43
2018-01-13T14:47:29.407Z,26.13
2018-01-13T14:49:56.143Z,28.57
2018-01-13T14:52:22.895Z,29.10
2018-01-13T14:54:49.641Z,29.63
2018-01-13T14:57:16.404Z,28.03
2018-01-13T14:59:43.128Z,28.17
2018-01-13T15:02:09.917Z,27.13
2018-01-13T15:04:36.647Z,28.27
2018-01-13T15:07:03.376Z,31.83
2018-01-13T15:09:30.114Z,29.53
2018-01-13T15:11:56.891Z,25.57
2018-01-13T15:14:23.623Z,23.30
2018-01-13T15:16:50.390Z,27.90
2018-01-13T15:19:17.135Z,25.53
2018-01-13T15:21:43.889Z,28.03
2018-01-13T15:24:10.672Z,31.03
2018-01-13T15:26:37.405Z,27.40
2018-01-13T15:29:04.131Z,31.33
2018-01-13T15:31:30.918Z,26.60
2018-01-13T15:33:57.654Z,33.10
2018-01-13T15:36:24.382Z,25.03
2018-01-13T15:38:51.125Z,31.70
2018-01-13T15:41:17.892Z,30.10
2018-01-13T15:43:44.985Z,24.40
2018-01-13T15:46:11.746Z,30.07
2018-01-13T15:48:56.744Z,26.07
2018-01-13T15:53:56.676Z,27.10
2018-01-13T15:56:23.409Z,24.63
2018-01-13T15:58:50.155Z,31.10
2018-01-13T16:01:16.889Z,33.33
2018-01-13T16:03:43.619Z,30.53
2018-01-13T16:06:10.375Z,28.03
2018-01-13T16:08:37.107Z,26.50
2018-01-13T16:11:03.891Z,28.57
2018-01-13T16:13:30.613Z,30.60
2018-01-13T16:15:57.366Z,29.90
2018-01-13T16:18:24.232Z,24.77
2018-01-13T16:20:50.997Z,22.93
2018-01-13T16:23:17.733Z,26.03
2018-01-13T16:25:44.465Z,24.57
2018-01-13T16:28:11.251Z,24.33
2018-01-13T16:30:38.087Z,27.77
2018-01-13T16:33:04.895Z,25.37
2018-01-13T16:35:31.711Z,27.80
2018-01-13T16:37:58.549Z,21.93
2018-01-13T16:40:25.337Z,21.40
2018-01-13T16:42:52.072Z,23.53
2018-01-13T16:45:18.807Z,19.00
2018-01-13T16:47:45.670Z,23.70
2018-01-13T16:50:12.456Z,20.30
2018-01-13T16:52:39.166Z,21.87
2018-01-13T16:55:05.907Z,20.97
2018-01-13T16:57:32.679Z,18.50
2018-01-13T16:59:59.417Z,16.60
2018-01-13T17:02:26.146Z,17.17
2018-01-13T17:04:52.897Z,21.07
2018-01-13T17:07:19.618Z,18.37
2018-01-13T17:09:46.349Z,17.30
2018-01-13T17:12:13.076Z,17.30
2018-01-13T17:14:39.815Z,16.47
2018-01-13T17:17:06.604Z,18.50
2018-01-13T17:19:33.349Z,16.43
2018-01-13T17:22:00.075Z,16.80
2018-01-13T17:24:26.931Z,17.27
2018-01-13T17:26:53.677Z,18.80
2018-01-13T17:31:53.675Z,18.20
2018-01-13T17:34:20.435Z,16.13
2018-01-13T17:36:47.189Z,16.30
2018-01-13T17:39:13.960Z,18.70
2018-01-13T17:41:40.707Z,15.30
2018-01-13T17:44:07.462Z,17.17
2018-01-13T17:46:34.216Z,17.60
2018-01-13T17:49:00.945Z,17.30
2018-01-13T17:51:27.700Z,15.37
2018-01-13T17:53:54.440Z,16.93
2018-01-13T17:56:21.226Z,16.47
2018-01-13T17:58:47.959Z,15.63
2018-01-13T18:01:14.754Z,17.10
2018-01-13T18:03:41.501Z,17.67
2018-01-13T18:06:08.252Z,17.40
2018-01-13T18:08:34.973Z,15.30
2018-01-13T18:11:01.706Z,17.00
2018-01-13T18:13:28.451Z,15.90
2018-01-13T18:15:55.204Z,16.87
2018-01-13T18:18:21.948Z,17.77
2018-01-13T18:20:48.704Z,16.30
2018-01-13T18:23:15.520Z,16.80
2018-01-13T18:25:42.239Z,15.80
2018-01-13T18:28:08.966Z,16.50
2018-01-13T18:30:35.737Z,16.10
2018-01-13T18:33:02.484Z,18.00
2018-01-13T18:35:29.233Z,17.10
2018-01-13T18:37:55.981Z,20.40
2018-01-13T18:40:22.733Z,19.63
2018-01-13T18:42:49.481Z,20.53
2018-01-13T18:45:16.260Z,19.07
2018-01-13T18:47:42.996Z,21.23
2018-01-13T18:50:09.750Z,20.77
2018-01-13T18:52:36.503Z,19.20
2018-01-13T18:55:03.231Z,20.60
2018-01-13T18:57:30.079Z,19.00
2018-01-13T18:59:56.851Z,19.60
2018-01-13T19:02:23.574Z,21.17
2018-01-13T19:04:50.302Z,21.40
2018-01-13T19:07:17.049Z,17.40
2018-01-13T19:09:43.774Z,19.50
2018-01-13T19:12:10.516Z,19.47
2018-01-13T19:14:37.343Z,18.80
2018-01-13T19:17:04.115Z,18.20
2018-01-13T19:19:30.854Z,16.40
2018-01-13T19:21:57.618Z,19.80
2018-01-13T19:24:24.377Z,18.10
2018-01-13T19:26:51.138Z,20.90
2018-01-13T19:29:17.890Z,20.90
2018-01-13T19:31:44.653Z,19.97
2018-01-13T19:34:11.370Z,20.20
2018-01-13T19:36:38.137Z,19.60
2018-01-13T19:39:04.921Z,18.47
2018-01-13T19:41:31.720Z,20.80
2018-01-13T19:43:58.473Z,20.73
2018-01-13T19:46:25.218Z,19.97
2018-01-13T19:48:59.290Z,17.83
2018-01-13T19:51:27.589Z,16.60
2018-01-13T19:53:56.993Z,16.47
2018-01-13T19:56:33.576Z,16.93
2018-01-13T19:59:02.999Z,15.00
2018-01-13T20:01:30.841Z,13.73
2018-01-13T20:03:58.508Z,16.93
2018-01-13T20:06:29.049Z,15.37
2018-01-13T20:08:57.942Z,14.00
2018-01-13T20:11:26.112Z,17.80
2018-01-13T20:13:52.902Z,20.40
2018-01-13T20:16:19.761Z,19.43
2018-01-13T20:18:46.741Z,15.20
2018-01-13T20:21:13.446Z,18.83
2018-01-13T20:23:40.273Z,17.53
2018-01-13T20:26:07.009Z,16.03
2018-01-13T20:28:33.737Z,14.00
2018-01-13T20:31:00.502Z,16.80
2018-01-13T20:33:27.234Z,16.53
2018-01-13T20:35:53.997Z,14.20
2018-01-13T20:38:20.742Z,15.97
2018-01-13T20:40:47.512Z,16.43
2018-01-13T20:43:14.302Z,15.73
2018-01-13T20:45:41.091Z,20.90
2018-01-13T20:48:07.887Z,25.13
2018-01-13T20:50:34.643Z,21.83
2018-01-13T20:53:01.412Z,21.77
2018-01-13T20:55:28.205Z,19.90
2018-01-13T20:57:54.967Z,15.13
2018-01-13T21:00:21.718Z,17.70
2018-01-13T21:02:48.522Z,17.10
2018-01-13T21:05:15.393Z,18.17
2018-01-13T21:07:42.144Z,18.97
2018-01-13T21:10:08.895Z,19.63
2018-01-13T21:12:35.630Z,15.60
2018-01-13T21:15:02.383Z,19.30
2018-01-13T21:17:29.147Z,16.07
2018-01-13T21:19:55.902Z,18.27
2018-01-13T21:22:22.659Z,18.67
2018-01-13T21:24:49.389Z,19.63
2018-01-13T21:27:38.099Z,22.33
2018-01-13T21:30:04.857Z,17.47
2018-01-13T21:32:31.610Z,18.70
2018-01-13T21:34:58.410Z,17.37
2018-01-13T21:37:25.134Z,17.80
2018-01-13T21:39:51.892Z,18.00
2018-01-13T21:42:18.674Z,17.53
2018-01-13T21:44:45.423Z,17.30
2018-01-13T21:47:12.159Z,16.97
2018-01-13T21:49:38.942Z,17.50
2018-01-13T21:52:05.678Z,19.50
2018-01-13T21:54:32.482Z,17.70
2018-01-13T21:56:59.269Z,17.67
2018-01-13T21:59:26.023Z,17.33
2018-01-13T22:01:52.762Z,15.90
2018-01-13T22:04:19.513Z,14.17
2018-01-13T22:06:46.247Z,15.07
2018-01-13T22:09:13.067Z,16.17
2018-01-13T22:11:40.035Z,14.23
2018-01-13T22:14:06.789Z,14.73
2018-01-13T22:16:33.530Z,17.33
2018-01-13T22:19:00.318Z,16.07
2018-01-13T22:21:27.087Z,16.40
2018-01-13T22:23:53.923Z,16.50
2018-01-13T22:26:20.759Z,16.27
2018-01-13T22:28:47.622Z,14.40
2018-01-13T22:31:14.359Z,15.70
2018-01-13T22:33:41.144Z,13.93
2018-01-13T22:36:07.893Z,14.93
2018-01-13T22:38:34.633Z,15.10
2018-01-13T22:41:01.372Z,15.67
2018-01-13T22:43:28.236Z,15.27
2018-01-13T22:45:55.035Z,14.77
2018-01-13T22:48:21.789Z,15.63
2018-01-13T22:50:48.560Z,17.50
2018-01-13T22:53:15.298Z,15.97
2018-01-13T22:55:42.059Z,16.77
2018-01-13T22:58:08.801Z,13.40
2018-01-13T23:00:38.156Z,15.57
2018-01-13T23:03:04.914Z,15.07
2018-01-13T23:05:31.661Z,17.03
2018-01-13T23:07:58.390Z,15.30
2018-01-13T23:13:06.872Z,15.37
2018-01-13T23:15:33.609Z,14.93
2018-01-13T23:18:00.341Z,14.07
2018-01-13T23:20:27.126Z,15.03
2018-01-13T23:22:53.891Z,13.67
2018-01-13T23:25:20.640Z,13.30
2018-01-13T23:27:47.406Z,13.80
2018-01-13T23:30:14.159Z,13.40
2018-01-13T23:32:40.890Z,16.90
2018-01-13T23:35:07.632Z,13.87
2018-01-13T23:37:34.390Z,14.93
2018-01-13T23:40:01.146Z,14.60
2018-01-13T23:42:27.930Z,14.80
2018-01-13T23:44:54.690Z,14.13
2018-01-13T23:47:21.437Z,13.37
2018-01-13T23:49:48.285Z,14.20
2018-01-13T23:52:15.022Z,14.23
2018-01-13T23:54:41.757Z,12.30
2018-01-13T23:57:08.522Z,13.80
2018-01-13T23:59:35.239Z,11.10
